KPTN/PTN METAR and TAF weather

Enter ICAO airport designator
Station Type Date Time Source
KPTN METAR 2020/03/29 15:56 UTC NOAA

KPTN 291556Z AUTO 03013KT 10SM FEW060 25/11 A3014 RMK AO2 SLP208 T02500106


Station Type Date Time Source
KPTN Decoded METAR 2020/03/29 15:56 UTC NOAA

Patterson Memorial, LA, United States (KPTN) 29-43N 091-20W
Mar 29, 2020 - 11:56 AM EDT / 2020.03.29 1556 UTC
Wind: from the NNE (030 degrees) at 15 MPH (13 KT):0
Visibility: 10 mile(s):0
Sky conditions: mostly clear
Temperature: 77.0 F (25.0 C)
Dew Point: 51.1 F (10.6 C)
Relative Humidity: 40%
Pressure (altimeter): 30.14 in. Hg (1020 hPa)
ob: KPTN 291556Z AUTO 03013KT 10SM FEW060 25/11 A3014 RMK AO2 SLP208 T02500106
cycle: 16

Station Type Date Time Source
KPTN TAF UTC NOAA

Error!

Example: see airport list